University Oxford Airport Oxford US
ICAO: KUOX
IATA: UOX
Category: Medium
Scheduled Services: No

Elevation: 452 ft
TransAlt. 18000 ft.

Airport Communications:
AWOS 3:132.725
MEMPHIS CNTR:128.5
CTAF/UNICOM:123

KUOX Zoom In..

If you have problems with the map follow the link
https://www.worldairports.se/pages/airport.php?
ICAO=KUOX

Runways:

(A) RW 09 length 5600 ft width 100 ft
LOC 111.70 / hdg 90

(B) RW 27 length 5600 ft width 100 ft
LOC 111.70 / hdg 270

Location; KUOX
Day. 22 / Time. 16.15 Zulu
* Altimeter: 30.16
* Temperature: 11° c. 51.8°f.
* Wind from: 120° Speed 08 kn with Gusts up to 14 kn.
Dewpoint: 11° c.
Visibility: 8 Statute Miles.
Clouds: Few 6500 ft.
Conditions: Light Rain.

KUOX 221615Z AUTO 12008G14KT 8SM -RA FEW065 11/11 A3016 RMK AO2


Wind From 120°
Speed 08 kn.

 
 
jpsmedia.com for Web Design worldairports.se 2019   terms of use